createdAt,value
2018-12-09T00:02:16.644Z,2.97
2018-12-09T00:04:44.047Z,2.83
2018-12-09T00:07:11.571Z,2.97
2018-12-09T00:09:39.033Z,3.47
2018-12-09T00:12:06.570Z,2.87
2018-12-09T00:14:33.979Z,3.50
2018-12-09T00:17:01.446Z,3.97
2018-12-09T00:19:28.831Z,2.67
2018-12-09T00:21:56.218Z,3.50
2018-12-09T00:24:23.608Z,3.37
2018-12-09T00:26:50.987Z,3.90
2018-12-09T00:29:18.387Z,2.77
2018-12-09T00:31:45.916Z,3.47
2018-12-09T00:34:13.326Z,2.37
2018-12-09T00:36:40.727Z,3.33
2018-12-09T00:39:08.168Z,3.20
2018-12-09T00:41:35.561Z,2.37
2018-12-09T00:44:03.089Z,3.13
2018-12-09T00:46:30.502Z,3.07
2018-12-09T00:48:57.925Z,3.00
2018-12-09T00:51:25.307Z,4.07
2018-12-09T00:53:52.713Z,3.00
2018-12-09T00:56:20.079Z,3.90
2018-12-09T00:58:47.480Z,2.63
2018-12-09T01:01:14.887Z,4.07
2018-12-09T01:03:42.435Z,3.20
2018-12-09T01:06:09.847Z,2.33
2018-12-09T01:08:37.255Z,2.87
2018-12-09T01:11:04.633Z,2.40
2018-12-09T01:13:32.042Z,2.10
2018-12-09T01:15:59.473Z,3.27
2018-12-09T01:18:26.890Z,2.30
2018-12-09T01:20:54.303Z,3.03
2018-12-09T01:23:21.709Z,2.47
2018-12-09T01:25:49.130Z,2.43
2018-12-09T01:28:16.529Z,2.97
2018-12-09T01:30:43.913Z,3.73
2018-12-09T01:33:11.338Z,3.10
2018-12-09T01:35:38.727Z,2.63
2018-12-09T01:38:06.149Z,2.93
2018-12-09T01:40:39.134Z,2.93
2018-12-09T01:43:06.863Z,3.30
2018-12-09T01:45:34.241Z,2.83
2018-12-09T01:48:01.608Z,2.50
2018-12-09T01:50:29.037Z,3.47
2018-12-09T01:53:00.980Z,2.00
2018-12-09T01:55:28.367Z,2.20
2018-12-09T01:57:55.778Z,2.07
2018-12-09T02:00:23.162Z,3.50
2018-12-09T02:02:50.572Z,1.90
2018-12-09T02:05:18.003Z,2.23
2018-12-09T02:07:45.445Z,2.33
2018-12-09T02:10:12.879Z,2.60
2018-12-09T02:12:40.295Z,2.77
2018-12-09T02:15:07.690Z,1.73
2018-12-09T02:17:35.099Z,2.57
2018-12-09T02:20:02.524Z,2.60
2018-12-09T02:22:29.915Z,1.90
2018-12-09T02:24:57.328Z,3.63
2018-12-09T02:27:24.838Z,2.43
2018-12-09T02:29:52.646Z,2.83
2018-12-09T02:32:20.251Z,2.03
2018-12-09T02:34:51.683Z,2.60
2018-12-09T02:37:19.166Z,2.87
2018-12-09T02:39:46.571Z,2.10
2018-12-09T02:42:13.978Z,2.73
2018-12-09T02:44:41.437Z,2.70
2018-12-09T02:47:08.865Z,3.07
2018-12-09T02:49:36.266Z,3.60
2018-12-09T02:52:03.659Z,1.57
2018-12-09T02:54:31.056Z,2.83
2018-12-09T02:56:58.462Z,2.73
2018-12-09T02:59:25.857Z,2.10
2018-12-09T03:01:53.383Z,2.57
2018-12-09T03:04:20.792Z,2.17
2018-12-09T03:06:48.177Z,2.27
2018-12-09T03:09:15.581Z,2.07
2018-12-09T03:11:43.038Z,2.87
2018-12-09T03:14:10.460Z,2.13
2018-12-09T03:16:38.314Z,1.57
2018-12-09T03:19:05.735Z,2.40
2018-12-09T03:21:33.172Z,2.50
2018-12-09T03:24:00.608Z,2.23
2018-12-09T03:26:28.148Z,1.90
2018-12-09T03:28:55.879Z,2.37
2018-12-09T03:31:23.275Z,3.00
2018-12-09T03:33:50.690Z,3.23
2018-12-09T03:36:18.112Z,1.80
2018-12-09T03:38:45.529Z,2.63
2018-12-09T03:41:13.149Z,2.23
2018-12-09T03:43:40.607Z,2.30
2018-12-09T03:46:08.017Z,1.23
2018-12-09T03:48:35.403Z,3.00
2018-12-09T03:51:02.807Z,1.90
2018-12-09T03:53:30.546Z,1.87
2018-12-09T03:55:57.955Z,2.37
2018-12-09T03:58:25.372Z,2.40
2018-12-09T04:00:52.826Z,2.73
2018-12-09T04:03:20.261Z,2.77
2018-12-09T04:05:47.700Z,2.60
2018-12-09T04:08:15.292Z,2.80
2018-12-09T04:10:42.936Z,2.80
2018-12-09T04:13:10.361Z,2.00
2018-12-09T04:15:40.707Z,2.03
2018-12-09T04:18:08.418Z,2.83
2018-12-09T04:20:35.970Z,2.67
2018-12-09T04:23:03.468Z,2.17
2018-12-09T04:25:30.880Z,2.60
2018-12-09T04:27:58.280Z,2.03
2018-12-09T04:30:26.125Z,2.20
2018-12-09T04:32:53.520Z,3.13
2018-12-09T04:35:20.946Z,1.90
2018-12-09T04:37:48.358Z,2.50
2018-12-09T04:40:15.750Z,2.43
2018-12-09T04:42:43.504Z,2.40
2018-12-09T04:45:10.902Z,2.17
2018-12-09T04:47:38.292Z,1.93
2018-12-09T04:50:06.111Z,2.33
2018-12-09T04:52:33.531Z,2.67
2018-12-09T04:55:01.346Z,2.00
2018-12-09T04:57:28.748Z,1.30
2018-12-09T05:00:00.703Z,2.67
2018-12-09T05:02:28.082Z,1.80
2018-12-09T05:04:55.509Z,3.00
2018-12-09T05:07:22.893Z,2.43
2018-12-09T05:09:50.300Z,3.03
2018-12-09T05:12:17.734Z,2.20
2018-12-09T05:14:45.110Z,2.17
2018-12-09T05:17:12.509Z,3.00
2018-12-09T05:19:40.144Z,2.30
2018-12-09T05:22:07.566Z,2.70
2018-12-09T05:24:34.945Z,3.07
2018-12-09T05:27:02.347Z,2.73
2018-12-09T05:29:29.735Z,2.10
2018-12-09T05:31:57.457Z,1.87
2018-12-09T05:34:24.852Z,2.30
2018-12-09T05:36:52.251Z,2.17
2018-12-09T05:39:19.699Z,2.20
2018-12-09T05:41:47.096Z,2.73
2018-12-09T05:44:14.501Z,1.80
2018-12-09T05:46:42.042Z,2.63
2018-12-09T05:49:09.515Z,1.50
2018-12-09T05:51:36.913Z,2.67
2018-12-09T05:54:04.337Z,2.60
2018-12-09T05:56:31.763Z,2.00
2018-12-09T05:58:59.167Z,3.17
2018-12-09T06:01:26.606Z,2.07
2018-12-09T06:03:53.979Z,2.70
2018-12-09T06:06:21.381Z,2.63
2018-12-09T06:08:48.810Z,2.10
2018-12-09T06:11:16.231Z,1.87
2018-12-09T06:13:43.689Z,2.33
2018-12-09T06:16:11.092Z,2.77
2018-12-09T06:18:38.494Z,1.97
2018-12-09T06:21:05.881Z,2.83
2018-12-09T06:23:33.515Z,2.33
2018-12-09T06:26:00.939Z,2.27
2018-12-09T06:28:28.390Z,3.30
2018-12-09T06:30:55.811Z,2.37
2018-12-09T06:33:23.224Z,2.83
2018-12-09T06:35:50.946Z,2.67
2018-12-09T06:38:18.344Z,1.90
2018-12-09T06:40:45.742Z,1.13
2018-12-09T06:43:13.152Z,2.77
2018-12-09T06:45:40.674Z,2.53
2018-12-09T06:48:08.067Z,2.70
2018-12-09T06:50:35.457Z,1.93
2018-12-09T06:53:02.879Z,3.10
2018-12-09T06:55:30.390Z,2.57
2018-12-09T06:57:58.657Z,2.53
2018-12-09T07:00:26.112Z,2.50
2018-12-09T07:02:53.531Z,2.90
2018-12-09T07:05:20.984Z,1.90
2018-12-09T07:07:48.530Z,2.50
2018-12-09T07:10:15.955Z,2.00
2018-12-09T07:12:43.440Z,2.70
2018-12-09T07:15:11.159Z,2.87
2018-12-09T07:17:38.579Z,2.27
2018-12-09T07:20:06.712Z,2.27
2018-12-09T07:22:34.076Z,3.07
2018-12-09T07:25:01.597Z,3.30
2018-12-09T07:27:29.156Z,2.00
2018-12-09T07:30:02.100Z,1.20
2018-12-09T07:32:26.110Z,2.10
2018-12-09T07:34:53.520Z,2.47
2018-12-09T07:37:20.914Z,2.17
2018-12-09T07:39:48.304Z,1.93
2018-12-09T07:42:15.721Z,2.77
2018-12-09T07:44:43.155Z,1.97
2018-12-09T07:47:10.603Z,2.73
2018-12-09T07:49:38.099Z,2.80
2018-12-09T07:52:05.557Z,2.40
2018-12-09T07:54:33.078Z,1.93
2018-12-09T07:57:00.507Z,2.47
2018-12-09T07:59:27.944Z,2.37
2018-12-09T08:01:55.507Z,2.03
2018-12-09T08:04:22.958Z,1.77
2018-12-09T08:06:50.358Z,2.90
2018-12-09T08:09:17.754Z,2.50
2018-12-09T08:11:45.187Z,2.90
2018-12-09T08:14:12.615Z,2.37
2018-12-09T08:16:40.043Z,2.97
2018-12-09T08:19:07.454Z,2.57
2018-12-09T08:21:34.838Z,2.30
2018-12-09T08:24:02.260Z,2.97
2018-12-09T08:26:29.703Z,3.20
2018-12-09T08:28:57.143Z,2.90
2018-12-09T08:31:24.564Z,3.27
2018-12-09T08:33:52.054Z,2.33
2018-12-09T08:36:19.441Z,3.27
2018-12-09T08:38:46.859Z,2.73
2018-12-09T08:41:14.332Z,2.60
2018-12-09T08:43:41.883Z,1.70
2018-12-09T08:46:09.312Z,2.23
2018-12-09T08:48:36.753Z,2.87
2018-12-09T08:51:04.155Z,2.80
2018-12-09T08:53:31.575Z,1.93
2018-12-09T08:55:59.114Z,2.37
2018-12-09T08:58:26.511Z,2.67
2018-12-09T09:00:53.974Z,2.30
2018-12-09T09:03:21.406Z,2.70
2018-12-09T09:05:48.909Z,2.67
2018-12-09T09:08:16.326Z,3.03
2018-12-09T09:10:43.781Z,2.60
2018-12-09T09:13:11.204Z,1.13
2018-12-09T09:15:38.614Z,1.40
2018-12-09T09:18:06.038Z,1.33
2018-12-09T09:20:33.709Z,0.80
2018-12-09T09:23:01.191Z,0.87
2018-12-09T09:25:28.680Z,0.90
2018-12-09T09:27:56.095Z,0.60
2018-12-09T09:30:23.513Z,0.90
2018-12-09T09:32:50.924Z,0.80
2018-12-09T09:35:18.433Z,0.47
2018-12-09T09:37:45.924Z,0.77
2018-12-09T09:40:13.402Z,0.50
2018-12-09T09:42:40.827Z,0.60
2018-12-09T09:45:08.289Z,0.70
2018-12-09T09:47:35.734Z,1.20
2018-12-09T09:50:03.377Z,2.70
2018-12-09T09:52:30.844Z,3.00
2018-12-09T09:54:58.971Z,2.73
2018-12-09T09:57:26.413Z,1.90
2018-12-09T09:59:53.835Z,2.77
2018-12-09T10:02:21.274Z,2.10
2018-12-09T10:04:48.746Z,2.33
2018-12-09T10:07:16.601Z,2.50
2018-12-09T10:09:44.035Z,2.53
2018-12-09T10:12:12.912Z,2.13
2018-12-09T10:14:40.558Z,2.53
2018-12-09T10:17:07.968Z,1.97
2018-12-09T10:19:35.482Z,1.93
2018-12-09T10:22:02.984Z,2.23
2018-12-09T10:24:30.416Z,2.33
2018-12-09T10:26:57.990Z,2.23
2018-12-09T10:29:25.409Z,2.30
2018-12-09T10:31:53.006Z,1.97
2018-12-09T10:34:21.090Z,1.30
2018-12-09T10:36:48.502Z,2.27
2018-12-09T10:39:15.941Z,1.87
2018-12-09T10:41:43.464Z,1.67
2018-12-09T10:44:10.881Z,1.63
2018-12-09T10:46:38.394Z,1.47
2018-12-09T10:49:05.882Z,1.70
2018-12-09T10:51:33.403Z,2.53
2018-12-09T10:54:00.883Z,1.87
2018-12-09T10:56:28.383Z,1.80
2018-12-09T10:58:55.830Z,1.80
2018-12-09T11:01:26.315Z,1.73
2018-12-09T11:03:53.826Z,2.47
2018-12-09T11:06:21.584Z,1.97
2018-12-09T11:08:49.018Z,1.20
2018-12-09T11:11:16.428Z,2.00
2018-12-09T11:13:43.887Z,1.43
2018-12-09T11:16:11.336Z,2.00
2018-12-09T11:18:38.781Z,1.47
2018-12-09T11:21:06.201Z,1.63
2018-12-09T11:23:33.630Z,1.57
2018-12-09T11:26:01.025Z,1.70
2018-12-09T11:28:28.435Z,1.57
2018-12-09T11:30:55.864Z,1.50
2018-12-09T11:33:23.316Z,1.70
2018-12-09T11:35:50.721Z,1.80
2018-12-09T11:38:18.148Z,1.73
2018-12-09T11:40:45.681Z,1.77
2018-12-09T11:43:13.087Z,1.87
2018-12-09T11:45:40.495Z,1.30
2018-12-09T11:48:07.969Z,1.00
2018-12-09T11:50:35.490Z,1.00
2018-12-09T11:53:02.890Z,1.00
2018-12-09T11:55:30.303Z,1.60
2018-12-09T11:57:57.714Z,1.30
2018-12-09T12:00:25.139Z,1.30
2018-12-09T12:02:52.600Z,1.10
2018-12-09T12:05:20.037Z,1.80
2018-12-09T12:07:47.538Z,2.00
2018-12-09T12:10:15.172Z,1.37
2018-12-09T12:12:42.665Z,1.63
2018-12-09T12:15:10.092Z,1.10
2018-12-09T12:17:37.524Z,1.33
2018-12-09T12:20:05.311Z,1.60
2018-12-09T12:22:32.730Z,1.43
2018-12-09T12:25:00.142Z,1.87
2018-12-09T12:27:27.586Z,1.10
2018-12-09T12:29:55.008Z,1.17
2018-12-09T12:32:22.409Z,1.50
2018-12-09T12:34:49.902Z,1.30
2018-12-09T12:37:17.320Z,1.67
2018-12-09T12:39:44.713Z,1.50
2018-12-09T12:42:12.143Z,1.83
2018-12-09T12:44:39.694Z,1.63
2018-12-09T12:47:07.232Z,2.13
2018-12-09T12:49:34.704Z,0.93
2018-12-09T12:52:02.123Z,1.53
2018-12-09T12:54:29.515Z,2.53
2018-12-09T12:56:57.017Z,2.20
2018-12-09T12:59:24.480Z,1.93
2018-12-09T13:01:51.962Z,1.90
2018-12-09T13:04:19.398Z,1.93
2018-12-09T13:06:46.853Z,1.70
2018-12-09T13:09:14.301Z,1.27
2018-12-09T13:11:41.758Z,1.47
2018-12-09T13:14:09.250Z,2.10
2018-12-09T13:16:36.759Z,1.30
2018-12-09T13:19:04.196Z,1.77
2018-12-09T13:21:31.601Z,1.20
2018-12-09T13:23:59.046Z,1.80
2018-12-09T13:26:26.546Z,1.63
2018-12-09T13:28:53.952Z,1.30
2018-12-09T13:31:21.355Z,1.20
2018-12-09T13:33:48.814Z,1.37
2018-12-09T13:36:16.229Z,1.20
2018-12-09T13:38:50.402Z,1.03
2018-12-09T13:41:17.854Z,1.13
2018-12-09T13:43:45.257Z,1.20
2018-12-09T13:46:12.667Z,0.83
2018-12-09T13:48:40.104Z,1.60
2018-12-09T13:51:07.504Z,1.33
2018-12-09T13:53:34.888Z,1.20
2018-12-09T13:56:02.320Z,1.00
2018-12-09T13:58:29.737Z,1.53
2018-12-09T14:00:57.123Z,1.23
2018-12-09T14:03:24.565Z,1.50
2018-12-09T14:05:51.974Z,1.33
2018-12-09T14:08:19.350Z,1.33
2018-12-09T14:10:46.786Z,1.27
2018-12-09T14:13:14.279Z,1.70
2018-12-09T14:15:41.733Z,1.17
2018-12-09T14:18:09.186Z,1.43
2018-12-09T14:20:36.611Z,1.20
2018-12-09T14:23:04.276Z,1.27
2018-12-09T14:25:31.691Z,1.40
2018-12-09T14:27:59.140Z,1.47
2018-12-09T14:30:26.613Z,0.90
2018-12-09T14:32:54.074Z,1.17
2018-12-09T14:35:21.500Z,0.77
2018-12-09T14:37:48.926Z,0.80
2018-12-09T14:40:16.354Z,1.00
2018-12-09T14:42:43.834Z,1.23
2018-12-09T14:45:11.299Z,1.40
2018-12-09T14:47:38.700Z,1.20
2018-12-09T14:50:08.517Z,1.27
2018-12-09T14:52:36.279Z,1.23
2018-12-09T14:55:03.888Z,1.50
2018-12-09T14:57:31.314Z,1.40
2018-12-09T14:59:58.744Z,2.13
2018-12-09T15:02:26.270Z,1.10
2018-12-09T15:04:53.683Z,1.07
2018-12-09T15:07:22.539Z,1.17
2018-12-09T15:09:50.171Z,1.10
2018-12-09T15:12:17.974Z,1.23
2018-12-09T15:14:45.421Z,1.00
2018-12-09T15:17:12.840Z,1.97
2018-12-09T15:19:40.241Z,1.73
2018-12-09T15:22:07.655Z,1.87
2018-12-09T15:24:41.303Z,1.70
2018-12-09T15:27:04.596Z,1.40
2018-12-09T15:29:31.983Z,1.37
2018-12-09T15:31:59.424Z,1.27
2018-12-09T15:34:26.855Z,0.70
2018-12-09T15:36:54.309Z,2.00
2018-12-09T15:39:21.759Z,1.87
2018-12-09T15:41:49.368Z,1.43
2018-12-09T15:44:16.826Z,2.03
2018-12-09T15:46:44.211Z,2.03
2018-12-09T15:49:11.629Z,1.87
2018-12-09T15:51:39.082Z,2.23
2018-12-09T15:54:06.698Z,1.37
2018-12-09T15:56:34.176Z,1.67
2018-12-09T15:59:01.626Z,2.03
2018-12-09T16:01:29.022Z,1.53
2018-12-09T16:03:56.546Z,1.63
2018-12-09T16:06:23.975Z,1.00
2018-12-09T16:08:51.368Z,1.83
2018-12-09T16:11:18.866Z,2.30
2018-12-09T16:13:46.279Z,1.13
2018-12-09T16:16:13.715Z,1.00
2018-12-09T16:18:41.097Z,1.63
2018-12-09T16:21:08.556Z,2.07
2018-12-09T16:23:35.985Z,1.07
2018-12-09T16:26:03.399Z,1.33
2018-12-09T16:28:31.130Z,1.37
2018-12-09T16:30:58.561Z,1.83
2018-12-09T16:33:25.988Z,1.50
2018-12-09T16:35:53.466Z,1.50
2018-12-09T16:38:20.965Z,3.07
2018-12-09T16:40:48.378Z,1.37
2018-12-09T16:43:15.825Z,1.50
2018-12-09T16:45:43.324Z,1.40
2018-12-09T16:48:10.708Z,1.97
2018-12-09T16:50:38.128Z,1.27
2018-12-09T16:53:05.548Z,2.13
2018-12-09T16:55:32.945Z,1.70
2018-12-09T16:58:00.433Z,1.77
2018-12-09T17:00:27.844Z,1.90
2018-12-09T17:02:55.307Z,1.13
2018-12-09T17:05:23.692Z,1.90
2018-12-09T17:07:51.079Z,1.33
2018-12-09T17:10:18.516Z,2.73
2018-12-09T17:12:45.975Z,2.20
2018-12-09T17:15:13.394Z,2.37
2018-12-09T17:17:40.859Z,2.40
2018-12-09T17:20:08.322Z,2.83
2018-12-09T17:22:35.726Z,1.43
2018-12-09T17:25:03.260Z,1.80
2018-12-09T17:27:30.686Z,1.83
2018-12-09T17:29:58.086Z,1.33
2018-12-09T17:32:25.522Z,1.37
2018-12-09T17:34:52.952Z,1.70
2018-12-09T17:37:20.359Z,1.83
2018-12-09T17:39:47.731Z,1.93
2018-12-09T17:42:15.130Z,2.70
2018-12-09T17:44:42.672Z,2.13
2018-12-09T17:47:10.176Z,1.50
2018-12-09T17:49:37.653Z,1.73
2018-12-09T17:52:05.095Z,2.67
2018-12-09T17:54:32.507Z,1.60
2018-12-09T17:56:59.973Z,2.03
2018-12-09T17:59:29.471Z,2.33
2018-12-09T18:01:57.000Z,2.93
2018-12-09T18:04:24.401Z,1.83
2018-12-09T18:06:51.857Z,1.57
2018-12-09T18:09:19.270Z,1.50
2018-12-09T18:11:46.654Z,2.40
2018-12-09T18:14:14.073Z,2.33
2018-12-09T18:16:41.527Z,1.73
2018-12-09T18:19:08.939Z,1.97
2018-12-09T18:21:36.365Z,1.50
2018-12-09T18:24:03.853Z,1.60
2018-12-09T18:26:31.306Z,2.20
2018-12-09T18:28:58.715Z,2.53
2018-12-09T18:31:26.164Z,1.60
2018-12-09T18:33:53.690Z,1.90
2018-12-09T18:36:21.101Z,2.50
2018-12-09T18:38:48.815Z,1.77
2018-12-09T18:41:16.287Z,2.13
2018-12-09T18:43:43.893Z,1.80
2018-12-09T18:46:11.307Z,1.53
2018-12-09T18:48:38.695Z,1.97
2018-12-09T18:51:06.090Z,1.80
2018-12-09T18:53:33.474Z,1.73
2018-12-09T18:56:01.037Z,2.30
2018-12-09T18:58:28.460Z,2.27
2018-12-09T19:00:55.956Z,1.63
2018-12-09T19:03:23.421Z,2.97
2018-12-09T19:05:50.920Z,2.13
2018-12-09T19:08:18.431Z,1.63
2018-12-09T19:10:45.872Z,2.47
2018-12-09T19:13:13.284Z,2.30
2018-12-09T19:15:40.690Z,1.87
2018-12-09T19:18:08.176Z,1.80
2018-12-09T19:20:35.594Z,2.03
2018-12-09T19:23:02.991Z,1.80
2018-12-09T19:25:30.424Z,2.03
2018-12-09T19:27:57.815Z,1.33
2018-12-09T19:30:25.217Z,2.20
2018-12-09T19:32:52.635Z,1.80
2018-12-09T19:35:20.199Z,2.30
2018-12-09T19:37:47.619Z,3.20
2018-12-09T19:40:15.045Z,2.20
2018-12-09T19:42:42.531Z,2.27
2018-12-09T19:45:10.183Z,2.77
2018-12-09T19:47:37.618Z,1.87
2018-12-09T19:50:05.137Z,1.37
2018-12-09T19:52:32.547Z,1.77
2018-12-09T19:54:59.968Z,1.40
2018-12-09T19:57:27.436Z,1.73
2018-12-09T19:59:54.861Z,2.00
2018-12-09T20:02:22.345Z,2.27
2018-12-09T20:04:49.818Z,2.20
2018-12-09T20:07:17.258Z,2.00
2018-12-09T20:09:44.632Z,1.97
2018-12-09T20:12:12.034Z,2.00
2018-12-09T20:14:39.482Z,1.93
2018-12-09T20:17:06.880Z,1.83
2018-12-09T20:19:34.279Z,2.40
2018-12-09T20:22:01.713Z,2.30
2018-12-09T20:24:29.075Z,1.83
2018-12-09T20:26:56.631Z,1.40
2018-12-09T20:29:24.062Z,1.80
2018-12-09T20:31:51.466Z,2.20
2018-12-09T20:34:18.926Z,1.57
2018-12-09T20:36:46.433Z,1.47
2018-12-09T20:39:13.869Z,1.43
2018-12-09T20:41:41.272Z,1.50
2018-12-09T20:44:09.180Z,1.60
2018-12-09T20:46:36.752Z,0.90
2018-12-09T20:49:06.838Z,1.07
2018-12-09T20:51:34.291Z,1.10
2018-12-09T20:54:01.691Z,1.10
2018-12-09T20:56:29.117Z,1.20
2018-12-09T20:58:56.586Z,1.37
2018-12-09T21:01:23.991Z,1.50
2018-12-09T21:03:51.559Z,1.27
2018-12-09T21:06:19.022Z,0.90
2018-12-09T21:08:46.522Z,1.67
2018-12-09T21:11:13.975Z,1.43
2018-12-09T21:13:41.704Z,1.43
2018-12-09T21:16:09.103Z,1.73
2018-12-09T21:18:36.605Z,1.27
2018-12-09T21:21:04.182Z,1.70
2018-12-09T21:23:31.559Z,1.80
2018-12-09T21:25:58.955Z,1.50
2018-12-09T21:28:26.373Z,1.37
2018-12-09T21:30:53.847Z,2.00
2018-12-09T21:33:21.266Z,1.80
2018-12-09T21:35:48.694Z,2.03
2018-12-09T21:38:16.122Z,1.90
2018-12-09T21:40:43.770Z,1.90
2018-12-09T21:43:11.173Z,1.60
2018-12-09T21:45:38.761Z,1.70
2018-12-09T21:48:06.314Z,1.83
2018-12-09T21:50:33.749Z,1.80
2018-12-09T21:53:01.342Z,1.30
2018-12-09T21:55:28.790Z,2.23
2018-12-09T21:57:56.210Z,1.63
2018-12-09T22:00:23.630Z,1.83
2018-12-09T22:02:51.040Z,1.90
2018-12-09T22:05:18.469Z,1.90
2018-12-09T22:07:45.896Z,1.60
2018-12-09T22:10:13.287Z,1.80
2018-12-09T22:12:40.967Z,1.23
2018-12-09T22:15:08.468Z,1.70
2018-12-09T22:17:35.914Z,1.57
2018-12-09T22:20:03.531Z,1.40
2018-12-09T22:22:30.962Z,1.60
2018-12-09T22:24:58.408Z,1.50
2018-12-09T22:27:26.114Z,1.60
2018-12-09T22:29:53.542Z,2.10
2018-12-09T22:32:21.005Z,2.10
2018-12-09T22:34:48.451Z,1.90
2018-12-09T22:37:15.896Z,1.70
2018-12-09T22:39:43.399Z,2.33
2018-12-09T22:42:10.878Z,1.60
2018-12-09T22:44:38.335Z,2.30
2018-12-09T22:47:05.802Z,1.30
2018-12-09T22:49:33.253Z,0.90
2018-12-09T22:52:00.701Z,1.27
2018-12-09T22:54:28.116Z,1.23
2018-12-09T22:56:55.539Z,1.97
2018-12-09T22:59:23.066Z,1.90
2018-12-09T23:01:56.478Z,1.50
2018-12-09T23:04:23.923Z,0.70
2018-12-09T23:06:53.358Z,1.00
2018-12-09T23:09:20.774Z,1.10
2018-12-09T23:11:48.197Z,1.60
2018-12-09T23:14:15.618Z,1.43
2018-12-09T23:16:43.295Z,1.50
2018-12-09T23:19:10.746Z,0.97
2018-12-09T23:21:38.149Z,1.67
2018-12-09T23:24:05.607Z,1.00
2018-12-09T23:26:33.027Z,0.90
2018-12-09T23:29:00.544Z,0.80
2018-12-09T23:31:27.955Z,1.03
2018-12-09T23:33:55.381Z,1.10
2018-12-09T23:36:22.794Z,0.70
2018-12-09T23:38:50.290Z,0.80
2018-12-09T23:41:17.669Z,0.97
2018-12-09T23:43:45.082Z,1.03
2018-12-09T23:46:12.523Z,1.00
2018-12-09T23:48:40.016Z,2.00
2018-12-09T23:51:07.448Z,1.13
2018-12-09T23:53:34.952Z,1.60
2018-12-09T23:56:02.366Z,1.40
2018-12-09T23:58:29.860Z,1.13
